Nearby METAR Reports

 

KSEE - San Diego/Santee, California, USA
Distance from station: E 4mi, 6km
Updated: 09/20/2018 8:55am
Mist, Partly cloudy
Mist, Partly cloudy
 Wind from calm
Wind: Calm
Temperature: 66°F , 19°C
Dew Point: 59°F , 15°C
Humidity: 78%
Barometer: 29.85 inHg , 1010.8 hPa
Summary: Mist
Clouds: Partly cloudy
Visibility: 6 miles , 10 km
Cloud details: Partly cloudy 1300 ft
2018/09/20 15:55 KSEE 201555Z 00000KT 6SM BR SCT013 19/15 A2985
KMYF - San Diego/Mntgmy, California, USA
Distance from station: W 6mi, 10km
Updated: 09/20/2018 8:53am
Haze, Overcast
Haze, Overcast
 Wind from calm
Wind: Calm
Temperature: 66°F , 19°C
Dew Point: 59°F , 15°C
Humidity: 78%
Barometer: 29.85 inHg , 1010.8 hPa
Summary: Haze
Clouds: Overcast
Visibility: 6 miles , 10 km
Cloud details: Overcast 1100 ft
2018/09/20 15:53 KMYF 201553Z 00000KT 6SM HZ OVC011 19/15 A2985 RMK AO2 SLP106 T01890150
 
KNKX - Miramar Nas/San, California, USA
Distance from station: WNW 7mi, 11km
Updated: 09/20/2018 9:05am
Few Clouds
Few Clouds
 Wind from calm
Wind: Calm
Temperature: 70°F , 21°C
Dew Point: 59°F , 15°C
Humidity: 69%
Barometer: 29.85 inHg , 1010.8 hPa
Clouds: Few Clouds
Visibility: 9 miles , 14 km
Cloud details: Few Clouds 1300 ft
2018/09/20 16:05 KNKX 201605Z 00000KT 9SM FEW013 21/15 A2985 RMK AO2 T02110150
KSAN - San Diego, California, USA
Distance from station: WSW 11mi, 17km
Updated: 09/20/2018 8:51am
Overcast
Overcast
 Wind from WSW
Wind: WSW 7 mph , 11 km/h
Temperature: 68°F , 20°C
Dew Point: 59°F , 15°C
Humidity: 73%
Barometer: 29.86 inHg , 1011.2 hPa
Clouds: Overcast
Visibility: 7 miles , 11 km
Cloud details: Overcast 1200 ft
2018/09/20 15:51 KSAN 201551Z 24006KT 7SM OVC012 20/15 A2986 RMK AO2 SLP112 T02000150
 
KNZY - North Island Nas, California, USA
Distance from station: SW 13mi, 22km
Updated: 09/20/2018 7:52am
Overcast
Overcast
 Wind from SSW
Wind: SSW 5 mph , 7 km/h
Temperature: 64°F , 18°C
Dew Point: 59°F , 15°C
Humidity: 83%
Barometer: 29.83 inHg , 1010.2 hPa
Clouds: Overcast
Visibility: 8 miles , 13 km
Cloud details: Overcast 1200 ft
2018/09/20 14:52 KNZY 201452Z 21004KT 8SM OVC012 18/15 A2983 RMK AO2 SLP101 T01780150 53017
KRNM - Ramona, California, USA
Distance from station: NNE 16mi, 26km
Updated: 09/20/2018 8:53am
Partly cloudy
Partly cloudy
 Wind from varies
Wind: varies 3 mph , 6 km/h
Temperature: 68°F , 20°C
Dew Point: 55°F , 13°C
Humidity: 64%
Barometer: 29.86 inHg , 1011.2 hPa
Clouds: Partly cloudy
Visibility: 10 miles , 16 km
Cloud details: Partly cloudy 3900 ft
2018/09/20 15:53 KRNM 201553Z VRB03KT 10SM SCT039 20/13 A2986 RMK AO2 SLP101 T02000128
 
KSDM - San Diego/Brown, California, USA
Distance from station: S 16mi, 26km
Updated: 09/20/2018 8:53am
Haze, Mostly cloudy
Haze, Mostly cloudy
 Wind from NNE
Wind: NNE 5 mph , 7 km/h
Temperature: 66°F , 19°C
Dew Point: 61°F , 16°C
Humidity: 83%
Barometer: 29.85 inHg , 1010.8 hPa
Summary: Haze
Clouds: Mostly cloudy
Visibility: 6 miles , 10 km
Cloud details: Mostly cloudy 1000 ft
2018/09/20 15:53 KSDM 201553Z 02004KT 6SM HZ BKN010 19/16 A2985 RMK AO2 SLP104 T01940156
KNRS - Imperial Beach, California, USA
Distance from station: SSW 18mi, 29km
Updated: 09/20/2018 8:56am
Mist, Overcast
Mist, Overcast
 Wind from SW
Wind: SW 9 mph , 15 km/h
Temperature: 64°F , 18°C
Dew Point: 59°F , 15°C
Humidity: 83%
Barometer: 29.86 inHg , 1011.2 hPa
Summary: Mist
Clouds: Overcast
Visibility: 6 miles , 10 km
Cloud details: Overcast 1300 ft
2018/09/20 15:56 KNRS 201556Z 22008KT 6SM BR OVC013 18/15 A2986 RMK AO2 SLP109 T01830150
 
MMTJ - Tijuana Intl Arp, Mexico
Distance from station: S 20mi, 32km
Updated: 09/20/2018 8:50am
Haze, Partly cloudy
Haze, Partly cloudy
 Wind from calm
Wind: Calm
Temperature: 66°F , 19°C
Dew Point: 59°F , 15°C
Humidity: 78%
Barometer: 29.87 inHg , 1011.5 hPa
Summary: Haze
Clouds: Partly cloudy
Visibility: 3 miles , 5 km
Cloud details: Partly cloudy 1000 ft
2018/09/20 15:50 MMTJ 201550Z 00000KT 3SM HZ SCT010 19/15 A2987 RMK 8/500
KCRQ - Carlsbad, California, USA
Distance from station: NW 26mi, 43km
Updated: 09/20/2018 8:53am
Overcast
Overcast
 Wind from SSE
Wind: SSE 3 mph , 6 km/h
Temperature: 64°F , 18°C
Dew Point: 61°F , 16°C
Humidity: 88%
Barometer: 29.84 inHg , 1010.5 hPa
Clouds: Overcast
Visibility: 7 miles , 11 km
Cloud details: Overcast 1000 ft
2018/09/20 15:53 KCRQ 201553Z AUTO 16003KT 7SM OVC010 18/16 A2984 RMK AO2 SLP103 T01830156
 
KOKB - Oceanside, California, USA
Distance from station: NW 33mi, 54km
Updated: 09/20/2018 8:52am
Overcast
Overcast
 Wind from calm
Wind: Calm
Temperature: 66°F , 19°C
Dew Point: 59°F , 15°C
Humidity: 78%
Barometer: 29.84 inHg , 1010.5 hPa
Clouds: Overcast
Visibility: 8 miles , 13 km
Cloud details: Overcast 1300 ft
2018/09/20 15:52 KOKB 201552Z AUTO 00000KT 8SM OVC013 19/15 A2984 RMK AO2 SLP104 T01940150
KCZZ - Campo, California, USA
Distance from station: ESE 35mi, 56km
Updated: 09/20/2018 8:52am

 
Temperature: 81°F , 27°C
Heat Index: 82°F , 28°C
Dew Point: 63°F , 17°C
Humidity: 54%
Barometer: 29.86 inHg , 1011.2 hPa
2018/09/20 15:52 KCZZ 201552Z AUTO 27/17 A2986 RMK AO1 SLP078 T02670167
 
KNFG - Camp Pendleton, California, USA
Distance from station: NNW 37mi, 59km
Updated: 09/20/2018 8:55am
Overcast
Overcast
 Wind from E
Wind: E 3 mph , 6 km/h
Temperature: 66°F , 19°C
Dew Point: 61°F , 16°C
Humidity: 83%
Barometer: 29.85 inHg , 1010.8 hPa
Clouds: Overcast
Visibility: 9 miles , 14 km
Cloud details: Overcast 1200 ft
2018/09/20 15:55 KNFG 201555Z 09003KT 9SM OVC012 19/16 A2985 RMK AO2 SLP106 T01890161
KRIV - Riverside/March, California, USA
Distance from station: N 74mi, 119km
Updated: 09/18/2018 12:56pm
NOT Current
Clear
Clear
 Wind from calm
Wind: Calm
Temperature: 88°F , 31°C
Dew Point: 19°F , -7°C
Humidity: 8%
Barometer: 29.88 inHg , 1011.9 hPa
Clouds: Clear
Visibility: 10 miles , 16 km
2018/09/18 19:56 KRIV 181956Z AUTO 00000KT 10SM CLR 31/M07 A2988 RMK AO2 SLP106 T03131069 PNO $
 
KTRM - Thermal/Palm Spg, California, USA
Distance from station: NE 75mi, 121km
Updated: 09/20/2018 8:52am
Clear
Clear
 Wind from calm
Wind: Calm
Temperature: 90°F , 32°C
Heat Index: 94°F , 34°C
Dew Point: 68°F , 20°C
Humidity: 49%
Barometer: 29.78 inHg , 1008.5 hPa
Clouds: Clear
Visibility: 10 miles , 16 km
2018/09/20 15:52 KTRM 201552Z AUTO 00000KT 10SM CLR 32/20 A2978 RMK AO2 SLP095 T03220200
KPSP - Palm Springs, California, USA
Distance from station: NNE 76mi, 122km
Updated: 09/20/2018 8:53am
Partly cloudy
Partly cloudy
 Wind from calm
Wind: Calm
Temperature: 88°F , 31°C
Dew Point: 55°F , 13°C
Humidity: 33%
Barometer: 29.84 inHg , 1010.5 hPa
Clouds: Partly cloudy
Visibility: 10 miles , 16 km
Cloud details: Partly cloudy 3000 ft
2018/09/20 15:53 KPSP 201553Z 00000KT 10SM SCT030 31/13 A2984 RMK AO2 SLP098 T03060133
 
KSNA - Costa Mesa, California, USA
Distance from station: NW 76mi, 123km
Updated: 09/20/2018 8:53am
Overcast
Overcast
 Wind from E
Wind: E 5 mph , 7 km/h
Temperature: 66°F , 19°C
Dew Point: 59°F , 15°C
Humidity: 78%
Barometer: 29.85 inHg , 1010.8 hPa
Clouds: Overcast
Visibility: 9 miles , 14 km
Cloud details: Overcast 1100 ft
2018/09/20 15:53 KSNA 201553Z 09004KT 9SM OVC011 19/15 A2985 RMK AO2 SLP107 T01890150
KNJK - El Centro Naf, California, USA
Distance from station: E 79mi, 127km
Updated: 09/20/2018 8:56am
Few Clouds
Few Clouds
 Wind from varies
Wind: varies 5 mph , 7 km/h
Temperature: 84°F , 29°C
Heat Index: 90°F , 32°C
Dew Point: 73°F , 23°C
Humidity: 70%
Barometer: 29.81 inHg , 1009.5 hPa
Clouds: Few Clouds
Visibility: 10 miles , 16 km
Cloud details: Few Clouds 6000 ft
2018/09/20 15:56 KNJK 201556Z VRB04KT 10SM FEW060 29/23 A2981 RMK AO2 SLP108 T02940233 $
 
KAJO - Corona Muni, California, USA
Distance from station: NNW 82mi, 132km
Updated: 09/20/2018 8:56am
Clear
Clear
 
Temperature: 66°F , 19°C
Dew Point: 59°F , 15°C
Humidity: 78%
Barometer: 29.86 inHg , 1011.2 hPa
Clouds: Clear
Visibility: 9 miles , 14 km
2018/09/20 15:56 KAJO 201556Z AUTO 9SM CLR 19/15 A2986 RMK AO2 SLP117 T01890150 $